Time;durP1;ratioP1;P1;durP2;ratioP2;P2;SDS_P1;SDS_P2;PMS_P1;PMS_P2;Temp;Humidity;BMP_temperature;BMP_pressure;BME280_temperature;BME280_humidity;BME280_pressure;Samples;Min_cycle;Max_cycle;Signal;HPM_P1;HPM_P2
2022/06/05 00:00:47;;;;;;;;;22.00;22.00;29.90;49.00;;;;;;4994676;28;8782;-79
2022/06/05 00:03:39;;;;;;;;;18.33;18.33;29.90;49.20;;;;;;4997746;28;12238;-79
2022/06/05 00:06:16;;;;;;;;;25.00;23.33;29.90;49.30;;;;;;4997830;28;11614;-78
2022/06/05 00:09:16;;;;;;;;;23.00;23.00;29.80;49.40;;;;;;4997511;28;11703;-77
2022/06/05 00:12:01;;;;;;;;;23.00;23.00;29.80;49.40;;;;;;4997258;28;11563;-78
2022/06/05 00:14:26;;;;;;;;;19.67;19.33;29.80;49.60;;;;;;4997553;28;12204;-79
2022/06/05 00:16:52;;;;;;;;;21.67;21.67;29.80;49.50;;;;;;4997488;28;11524;-79
2022/06/05 00:19:18;;;;;;;;;18.25;18.25;29.80;49.40;;;;;;5012732;28;8795;-79
2022/06/05 00:21:44;;;;;;;;;16.33;16.33;29.70;49.60;;;;;;4997313;28;8814;-80
2022/06/05 00:24:10;;;;;;;;;20.67;20.67;29.70;49.70;;;;;;4997372;28;8885;-80
2022/06/05 00:26:43;;;;;;;;;22.67;22.67;29.60;49.80;;;;;;4997449;28;8802;-79
2022/06/05 00:29:45;;;;;;;;;20.33;20.33;29.70;49.80;;;;;;5012694;28;8866;-78
2022/06/05 00:32:18;;;;;;;;;20.67;20.67;29.70;49.80;;;;;;4963054;28;11541;-79
2022/06/05 00:34:44;;;;;;;;;20.67;20.67;29.60;49.70;;;;;;4997558;28;11558;-79
2022/06/05 00:37:46;;;;;;;;;20.00;20.00;29.60;50.00;;;;;;4997419;28;11654;-78
2022/06/05 00:40:31;;;;;;;;;18.33;18.33;29.60;50.10;;;;;;4988156;28;11519;-78
2022/06/05 00:42:59;;;;;;;;;20.33;20.33;29.60;50.30;;;;;;4996855;28;11529;-78
2022/06/05 00:45:28;;;;;;;;;19.00;19.00;29.50;50.30;;;;;;4996736;28;11546;-78
2022/06/05 00:47:55;;;;;;;;;17.00;17.00;29.50;50.30;;;;;;4996815;28;11552;-78
2022/06/05 00:50:31;;;;;;;;;19.67;19.67;29.50;49.70;;;;;;4996676;28;11568;-78
2022/06/05 00:52:59;;;;;;;;;20.33;20.33;29.50;50.20;;;;;;4997870;28;11648;-77
2022/06/05 00:55:28;;;;;;;;;19.00;19.00;29.50;50.60;;;;;;5000411;28;11625;-77
2022/06/05 00:57:55;;;;;;;;;20.00;20.00;29.40;50.60;;;;;;4997600;28;12262;-78
2022/06/05 01:00:25;;;;;;;;;20.00;19.00;29.40;50.50;;;;;;4996545;28;11603;-77
2022/06/05 01:02:54;;;;;;;;;19.33;19.33;29.40;50.40;;;;;;4996769;28;11721;-79
2022/06/05 01:05:22;;;;;;;;;21.00;21.00;29.50;50.50;;;;;;4995859;28;11659;-78
2022/06/05 01:07:48;;;;;;;;;22.00;22.00;29.50;50.20;;;;;;4996525;28;11569;-77
2022/06/05 01:10:17;;;;;;;;;23.00;23.00;29.50;50.30;;;;;;4996263;28;11679;-77
2022/06/05 01:13:12;;;;;;;;;22.33;22.33;29.40;50.40;;;;;;4996413;28;11559;-77
2022/06/05 01:16:02;;;;;;;;;21.33;21.33;29.40;50.30;;;;;;4996568;28;11573;-78
2022/06/05 01:18:58;;;;;;;;;19.33;19.33;29.40;50.10;;;;;;4996314;28;11571;-77
2022/06/05 01:21:24;;;;;;;;;20.00;20.00;29.40;50.10;;;;;;4954720;28;11545;-77
2022/06/05 01:24:03;;;;;;;;;20.00;20.00;29.30;50.10;;;;;;4955059;28;11512;-77
2022/06/05 01:26:38;;;;;;;;;20.00;20.00;29.30;50.20;;;;;;4954838;28;8783;-77
2022/06/05 01:29:19;;;;;;;;;16.33;16.33;29.30;50.10;;;;;;4955002;28;11591;-77
2022/06/05 01:31:59;;;;;;;;;19.25;19.25;29.30;50.20;;;;;;4955332;28;11507;-77
2022/06/05 01:34:29;;;;;;;;;15.00;15.00;29.30;50.30;;;;;;4939245;28;11526;-78
2022/06/05 01:37:04;;;;;;;;;19.00;19.00;29.30;50.40;;;;;;4955254;28;11505;-78
2022/06/05 01:39:47;;;;;;;;;19.33;19.33;29.30;50.50;;;;;;4955189;28;11616;-78
2022/06/05 01:42:27;;;;;;;;;20.67;20.67;29.30;50.30;;;;;;4955131;28;12303;-77
2022/06/05 01:44:59;;;;;;;;;20.00;20.00;29.30;50.20;;;;;;4955125;28;11526;-77
2022/06/05 01:47:32;;;;;;;;;19.00;19.00;29.10;50.60;;;;;;4955337;28;11521;-77
2022/06/05 01:50:13;;;;;;;;;18.33;18.33;29.10;50.70;;;;;;4954945;28;11636;-77
2022/06/05 01:52:46;;;;;;;;;17.00;17.00;29.10;50.60;;;;;;4954991;28;11521;-77
2022/06/05 01:55:41;;;;;;;;;21.67;21.67;29.10;50.50;;;;;;4955264;28;11566;-77
2022/06/05 01:58:12;;;;;;;;;23.00;23.00;29.00;50.50;;;;;;4967532;28;11549;-77
2022/06/05 02:00:38;;;;;;;;;19.00;19.00;29.00;50.30;;;;;;4995714;28;11534;-78
2022/06/05 02:03:24;;;;;;;;;21.00;21.00;29.00;50.20;;;;;;4995587;28;11543;-77
2022/06/05 02:06:10;;;;;;;;;20.33;20.33;29.00;50.20;;;;;;4995778;28;11584;-79
2022/06/05 02:08:50;;;;;;;;;19.00;19.00;29.00;50.20;;;;;;4995614;28;12396;-79
2022/06/05 02:11:30;;;;;;;;;20.33;20.33;28.90;50.30;;;;;;4995493;28;11647;-77
2022/06/05 02:14:06;;;;;;;;;19.00;19.00;28.80;50.60;;;;;;4995477;28;11588;-78
2022/06/05 02:16:33;;;;;;;;;20.33;20.33;28.70;50.80;;;;;;4995385;28;11543;-79
2022/06/05 02:19:03;;;;;;;;;19.67;19.67;28.80;50.90;;;;;;4995429;28;12280;-78
2022/06/05 02:21:29;;;;;;;;;18.00;18.00;28.70;50.90;;;;;;4995135;28;11590;-78
2022/06/05 02:23:57;;;;;;;;;18.33;18.33;28.70;51.00;;;;;;4994812;28;11631;-77
2022/06/05 02:26:23;;;;;;;;;19.00;19.00;28.70;51.00;;;;;;4995844;28;8775;-78
2022/06/05 02:28:48;;;;;;;;;18.00;18.00;28.70;50.90;;;;;;4994998;28;12220;-78
2022/06/05 02:31:32;;;;;;;;;17.67;17.67;28.60;51.00;;;;;;4995217;28;8779;-78
2022/06/05 02:34:22;;;;;;;;;19.67;19.67;28.50;50.90;;;;;;4995362;28;8762;-79
2022/06/05 02:37:24;;;;;;;;;19.00;19.00;28.50;51.40;;;;;;4995085;28;11545;-79
2022/06/05 02:40:02;;;;;;;;;17.67;17.67;28.40;51.60;;;;;;4995125;28;11736;-79
2022/06/05 02:42:31;;;;;;;;;17.33;17.33;28.20;51.80;;;;;;4994928;28;11547;-79
2022/06/05 02:44:59;;;;;;;;;20.00;20.00;28.00;52.30;;;;;;4993698;28;11556;-79
2022/06/05 02:47:37;;;;;;;;;16.00;16.00;27.80;52.50;;;;;;4994839;28;11567;-79
2022/06/05 02:50:16;;;;;;;;;16.33;16.33;27.90;52.60;;;;;;4994841;28;11593;-79
2022/06/05 02:52:43;;;;;;;;;18.00;18.00;28.00;52.00;;;;;;4995057;28;11626;-79
2022/06/05 02:55:16;;;;;;;;;23.00;23.00;27.90;52.30;;;;;;4995277;28;11550;-78
2022/06/05 02:57:43;;;;;;;;;25.00;25.00;27.60;53.10;;;;;;4995606;28;8778;-78
2022/06/05 03:00:13;;;;;;;;;30.00;28.33;27.70;53.00;;;;;;4995211;28;8860;-78
2022/06/05 03:05:24;;;;;;;;;28.33;27.33;27.90;52.40;;;;;;4994865;28;8743;-78
2022/06/05 03:07:49;;;;;;;;;26.67;26.00;27.90;52.30;;;;;;4995010;28;9463;-77
2022/06/05 03:10:16;;;;;;;;;21.00;21.00;27.90;52.20;;;;;;4994649;28;8815;-77
2022/06/05 03:12:41;;;;;;;;;24.33;24.33;27.90;52.40;;;;;;4994806;28;8873;-77
2022/06/05 03:15:08;;;;;;;;;24.67;24.67;27.90;52.40;;;;;;4994883;28;8790;-77
2022/06/05 03:17:34;;;;;;;;;16.67;16.67;27.90;52.50;;;;;;4994746;28;9471;-78
2022/06/05 03:20:00;;;;;;;;;20.00;20.00;27.90;52.50;;;;;;4994791;28;11574;-78
2022/06/05 03:22:26;;;;;;;;;21.67;21.67;28.00;52.50;;;;;;4994451;28;12189;-78
2022/06/05 03:24:53;;;;;;;;;22.00;22.00;28.00;52.40;;;;;;4994604;28;8767;-77
2022/06/05 03:27:20;;;;;;;;;20.67;20.67;27.90;52.50;;;;;;4994535;28;11560;-78
2022/06/05 03:29:46;;;;;;;;;20.00;20.00;27.90;52.60;;;;;;4994764;28;8913;-77
2022/06/05 03:32:13;;;;;;;;;17.33;17.33;28.00;52.60;;;;;;5009819;28;11531;-77
2022/06/05 03:34:38;;;;;;;;;17.33;17.33;27.90;52.60;;;;;;4994702;28;11537;-77
2022/06/05 03:37:04;;;;;;;;;18.67;18.67;28.00;52.70;;;;;;4997457;28;12281;-78
2022/06/05 03:39:33;;;;;;;;;19.00;19.00;28.00;52.50;;;;;;4998205;28;8790;-77
2022/06/05 03:41:59;;;;;;;;;19.33;19.33;28.00;52.10;;;;;;4998864;28;9498;-77
2022/06/05 03:44:26;;;;;;;;;19.00;19.00;28.00;52.20;;;;;;4998350;28;11603;-77
2022/06/05 03:46:52;;;;;;;;;22.00;22.00;27.90;52.30;;;;;;4998184;28;11523;-78
2022/06/05 03:49:18;;;;;;;;;17.33;17.33;28.00;52.20;;;;;;4998145;28;11785;-78
2022/06/05 03:51:47;;;;;;;;;20.00;20.00;28.00;52.10;;;;;;4999318;28;11559;-77
2022/06/05 03:54:13;;;;;;;;;18.67;18.67;28.00;52.10;;;;;;4997678;28;11570;-77
2022/06/05 03:56:39;;;;;;;;;23.00;23.00;27.90;52.20;;;;;;4998027;28;12207;-77
2022/06/05 03:59:05;;;;;;;;;21.00;20.33;27.90;52.50;;;;;;4998188;28;8893;-79
2022/06/05 04:01:31;;;;;;;;;20.00;20.00;28.00;52.30;;;;;;4997803;28;12166;-78
2022/06/05 04:03:57;;;;;;;;;20.00;20.00;28.10;52.20;;;;;;4997816;28;8775;-77
2022/06/05 04:06:29;;;;;;;;;21.00;21.00;28.10;52.10;;;;;;4997813;28;11557;-78
2022/06/05 04:09:04;;;;;;;;;17.00;17.00;28.20;52.10;;;;;;4997987;28;11568;-79
2022/06/05 04:11:32;;;;;;;;;21.00;21.00;28.20;52.10;;;;;;4997756;28;11532;-78
2022/06/05 04:13:58;;;;;;;;;18.33;18.33;28.20;52.00;;;;;;4997711;28;11564;-78
2022/06/05 04:16:26;;;;;;;;;15.67;15.67;28.20;52.00;;;;;;4997996;28;11511;-77
2022/06/05 04:18:53;;;;;;;;;19.67;19.67;28.20;51.80;;;;;;4997707;28;11542;-78
2022/06/05 04:21:22;;;;;;;;;20.67;20.67;28.20;51.90;;;;;;5012650;28;11605;-78
2022/06/05 04:23:49;;;;;;;;;23.33;23.33;28.20;52.00;;;;;;4997604;28;8785;-78
2022/06/05 04:26:18;;;;;;;;;25.00;25.00;28.20;52.10;;;;;;4997620;28;11650;-79
2022/06/05 04:28:44;;;;;;;;;24.67;24.67;28.20;52.20;;;;;;4997697;28;8834;-78
2022/06/05 04:31:31;;;;;;;;;28.33;28.33;28.20;52.20;;;;;;4997522;28;9627;-78
2022/06/05 04:34:00;;;;;;;;;26.33;26.33;28.30;52.20;;;;;;4997363;28;8791;-77
2022/06/05 04:36:27;;;;;;;;;28.00;28.00;28.30;52.30;;;;;;4997413;28;8759;-78
2022/06/05 04:38:54;;;;;;;;;24.67;24.67;28.40;52.00;;;;;;4997461;28;8783;-77
2022/06/05 04:41:20;;;;;;;;;23.67;23.67;28.50;51.90;;;;;;4998092;28;11602;-78
2022/06/05 04:43:48;;;;;;;;;19.33;19.33;28.60;51.70;;;;;;4997823;28;9475;-78
2022/06/05 04:46:13;;;;;;;;;21.67;21.67;28.60;51.50;;;;;;4996904;28;12408;-77
2022/06/05 04:48:39;;;;;;;;;22.00;22.00;28.60;51.50;;;;;;4997008;28;11773;-78
2022/06/05 04:51:07;;;;;;;;;18.67;18.67;28.70;51.50;;;;;;4997071;28;9536;-78
2022/06/05 04:53:33;;;;;;;;;22.33;22.33;28.70;51.60;;;;;;4996962;28;8799;-78
2022/06/05 04:56:07;;;;;;;;;19.00;19.00;28.60;51.90;;;;;;4996980;28;11574;-78
2022/06/05 04:58:33;;;;;;;;;20.67;20.67;28.40;52.60;;;;;;4997004;28;12297;-79
2022/06/05 05:00:59;;;;;;;;;21.33;21.33;28.50;52.80;;;;;;4996747;28;11541;-78
2022/06/05 05:03:25;;;;;;;;;20.33;20.33;28.60;52.50;;;;;;4996954;28;11676;-77
2022/06/05 05:05:51;;;;;;;;;21.67;21.67;28.50;52.90;;;;;;4997154;28;8779;-78
2022/06/05 05:08:17;;;;;;;;;21.50;21.50;28.60;52.60;;;;;;4996606;28;11531;-77
2022/06/05 05:10:43;;;;;;;;;14.67;14.67;28.80;52.60;;;;;;4996691;28;11568;-79
2022/06/05 05:13:09;;;;;;;;;21.00;21.00;28.90;52.40;;;;;;4997154;28;8861;-78
2022/06/05 05:15:35;;;;;;;;;20.67;20.67;29.00;52.20;;;;;;4996869;28;8783;-78
2022/06/05 05:18:02;;;;;;;;;23.33;23.33;29.10;51.80;;;;;;4996597;28;8786;-78
2022/06/05 05:20:29;;;;;;;;;18.50;18.50;29.20;51.50;;;;;;4996021;28;11550;-79
2022/06/05 05:22:55;;;;;;;;;18.33;18.33;29.20;51.10;;;;;;4996390;28;11617;-78
2022/06/05 05:25:21;;;;;;;;;22.67;22.67;29.30;51.20;;;;;;4996430;28;11614;-80
2022/06/05 05:27:47;;;;;;;;;21.67;21.67;29.30;51.20;;;;;;5011535;28;12218;-79
2022/06/05 05:30:13;;;;;;;;;26.33;26.33;29.40;51.60;;;;;;4996503;28;11610;-78
2022/06/05 05:32:39;;;;;;;;;28.33;28.33;29.40;51.60;;;;;;4996375;28;8783;-78
2022/06/05 05:35:06;;;;;;;;;27.00;27.00;29.50;51.70;;;;;;4996525;28;8786;-79
2022/06/05 05:37:32;;;;;;;;;29.67;29.67;29.50;51.70;;;;;;4996287;28;8787;-78
2022/06/05 05:42:42;;;;;;;;;28.00;28.00;29.40;50.80;;;;;;4996390;28;9393;-78
2022/06/05 05:45:09;;;;;;;;;27.00;27.00;29.50;50.90;;;;;;4996014;28;8806;-78
2022/06/05 05:47:35;;;;;;;;;26.00;26.00;29.70;51.30;;;;;;4996306;28;8782;-78
2022/06/05 05:50:13;;;;;;;;;23.00;23.00;29.50;50.70;;;;;;4995808;28;8814;-78
2022/06/05 05:52:39;;;;;;;;;30.00;28.67;29.60;50.90;;;;;;4995864;28;8795;-79
2022/06/05 05:55:07;;;;;;;;;26.00;26.00;29.70;50.90;;;;;;4995539;28;11556;-77
2022/06/05 05:57:33;;;;;;;;;28.67;28.67;29.70;51.10;;;;;;4995491;28;8787;-79
2022/06/05 05:59:59;;;;;;;;;36.67;33.67;29.70;51.10;;;;;;4995376;28;8839;-79
2022/06/05 06:02:26;;;;;;;;;32.33;31.33;29.70;51.70;;;;;;4995454;28;8767;-79
2022/06/05 06:04:52;;;;;;;;;41.67;36.67;29.80;51.80;;;;;;4994937;28;8818;-79
2022/06/05 06:07:20;;;;;;;;;44.00;38.33;29.70;51.80;;;;;;4995607;28;9465;-79
2022/06/05 06:09:46;;;;;;;;;39.67;36.33;29.70;51.70;;;;;;4995391;28;8853;-78
2022/06/05 06:12:12;;;;;;;;;32.00;31.00;29.80;51.80;;;;;;4995539;28;8782;-78
2022/06/05 06:14:40;;;;;;;;;58.00;48.33;29.90;50.90;;;;;;4995564;28;8805;-78
2022/06/05 06:17:06;;;;;;;;;51.33;44.33;29.90;51.00;;;;;;4995419;28;8791;-78
2022/06/05 06:19:32;;;;;;;;;50.00;42.33;29.90;50.90;;;;;;4995380;28;8821;-78
2022/06/05 06:21:58;;;;;;;;;38.33;35.00;30.00;50.60;;;;;;4995130;28;8818;-78
2022/06/05 06:24:24;;;;;;;;;38.33;34.67;30.10;50.70;;;;;;4995178;28;8779;-77
2022/06/05 06:26:49;;;;;;;;;36.00;33.00;30.10;50.70;;;;;;4995303;28;8867;-78
2022/06/05 06:29:15;;;;;;;;;35.67;33.33;30.20;50.60;;;;;;4995262;28;8875;-77
2022/06/05 06:31:44;;;;;;;;;43.33;38.00;30.10;51.10;;;;;;4995276;28;8872;-77
2022/06/05 06:34:10;;;;;;;;;38.33;35.33;30.20;51.00;;;;;;4994984;28;8797;-77
2022/06/05 06:36:36;;;;;;;;;30.67;30.33;30.30;50.80;;;;;;4995257;28;8782;-78
2022/06/05 06:39:02;;;;;;;;;36.00;33.33;30.40;50.60;;;;;;4995084;28;8794;-77
2022/06/05 06:41:28;;;;;;;;;31.00;30.00;30.40;50.30;;;;;;4995602;28;8941;-79
2022/06/05 06:43:54;;;;;;;;;27.33;27.33;30.40;50.20;;;;;;4996654;28;8914;-78
2022/06/05 06:46:21;;;;;;;;;29.67;29.67;30.30;50.60;;;;;;4994903;28;8807;-78
2022/06/05 06:48:47;;;;;;;;;26.33;26.33;30.30;51.00;;;;;;4994879;28;8827;-79
2022/06/05 06:51:15;;;;;;;;;33.33;31.67;30.30;50.70;;;;;;4994873;28;8787;-78
2022/06/05 06:53:42;;;;;;;;;28.00;27.00;30.20;50.50;;;;;;4995091;28;8794;-79
2022/06/05 06:56:13;;;;;;;;;28.67;28.00;30.30;50.10;;;;;;4993888;28;8779;-79
2022/06/05 06:58:41;;;;;;;;;27.33;27.33;30.50;49.90;;;;;;4995232;28;8799;-79
2022/06/05 07:01:07;;;;;;;;;27.33;27.33;30.50;49.30;;;;;;4994950;28;8864;-81
2022/06/05 07:03:34;;;;;;;;;24.33;24.33;30.60;49.50;;;;;;4994970;28;9409;-77
2022/06/05 07:06:06;;;;;;;;;35.33;33.33;30.60;49.40;;;;;;4994929;28;8783;-78
2022/06/05 07:08:32;;;;;;;;;35.33;33.00;30.80;48.70;;;;;;4995073;28;8787;-75
2022/06/05 07:10:58;;;;;;;;;31.33;30.33;30.80;48.50;;;;;;4994432;28;8770;-75
2022/06/05 07:13:25;;;;;;;;;29.67;29.67;30.70;47.70;;;;;;4994758;28;8766;-74
2022/06/05 07:15:51;;;;;;;;;36.00;33.00;30.70;48.10;;;;;;4994802;28;8771;-76
2022/06/05 07:18:17;;;;;;;;;46.67;40.00;30.80;48.10;;;;;;4994808;28;8791;-74
2022/06/05 07:20:44;;;;;;;;;37.67;34.67;30.60;47.70;;;;;;4994573;28;8911;-77
2022/06/05 07:23:12;;;;;;;;;32.33;31.33;30.70;48.10;;;;;;4994895;28;8763;-77
2022/06/05 07:25:44;;;;;;;;;27.33;27.33;30.90;48.00;;;;;;4994759;28;8786;-77
2022/06/05 07:28:10;;;;;;;;;21.00;21.00;31.00;47.20;;;;;;5010017;28;8786;-78
2022/06/05 07:30:36;;;;;;;;;21.00;21.00;31.00;46.10;;;;;;4994995;28;12210;-78
2022/06/05 07:33:01;;;;;;;;;21.00;21.00;30.90;46.70;;;;;;4994062;28;8787;-77
2022/06/05 07:35:27;;;;;;;;;23.00;23.00;31.10;47.00;;;;;;4994164;28;8803;-78
2022/06/05 07:37:53;;;;;;;;;21.33;21.33;31.10;46.60;;;;;;4994741;28;9590;-78
2022/06/05 07:40:19;;;;;;;;;17.00;17.00;31.20;46.60;;;;;;4994402;28;8787;-79
2022/06/05 07:42:45;;;;;;;;;21.75;21.75;31.10;44.00;;;;;;4994458;28;8783;-79
2022/06/05 07:48:33;;;;;;;;;18.25;18.25;31.40;44.20;;;;;;4994263;28;8746;-79
2022/06/05 07:56:41;;;;;;;;;18.00;18.00;31.40;41.80;;;;;;4994311;28;11502;-79
2022/06/05 07:59:07;;;;;;;;;19.25;19.25;31.40;43.20;;;;;;4994307;28;11615;-79
2022/06/05 08:01:35;;;;;;;;;17.25;17.25;31.50;43.20;;;;;;4994469;28;8793;-79
2022/06/05 08:04:01;;;;;;;;;18.75;18.75;31.50;41.80;;;;;;4994362;28;12227;-77
2022/06/05 08:06:27;;;;;;;;;15.75;15.75;31.60;41.50;;;;;;4994332;28;11508;-76
2022/06/05 08:08:53;;;;;;;;;19.00;19.00;31.70;40.80;;;;;;5009053;28;11582;-79
2022/06/05 08:11:18;;;;;;;;;14.50;14.50;31.70;41.80;;;;;;4994219;28;8775;-79
2022/06/05 08:13:45;;;;;;;;;12.50;12.50;31.80;39.20;;;;;;4993553;28;12203;-78
2022/06/05 08:16:12;;;;;;;;;16.00;16.00;31.80;37.10;;;;;;4993480;28;8760;-81
2022/06/05 08:18:38;;;;;;;;;12.75;12.75;31.90;38.60;;;;;;4993500;28;11501;-79
2022/06/05 08:21:04;;;;;;;;;10.75;10.75;31.80;37.50;;;;;;4993080;28;11561;-81
2022/06/05 08:23:30;;;;;;;;;11.25;11.25;31.90;37.00;;;;;;5012063;28;12238;-83
2022/06/05 08:25:57;;;;;;;;;12.00;12.00;32.00;36.90;;;;;;4997111;28;11542;-84
2022/06/05 08:28:25;;;;;;;;;13.50;13.50;32.10;38.30;;;;;;4997306;28;8825;-79
2022/06/05 08:30:52;;;;;;;;;7.25;7.25;32.20;39.30;;;;;;4997702;28;11555;-81
2022/06/05 08:33:18;;;;;;;;;12.75;12.75;32.20;38.30;;;;;;4997856;28;11533;-80
2022/06/05 08:35:49;;;;;;;;;7.00;7.00;32.20;38.80;;;;;;4997597;28;11513;-79
2022/06/05 08:41:37;;;;;;;;;10.25;10.25;32.50;38.90;;;;;;4997051;28;11495;-80
2022/06/05 08:44:06;;;;;;;;;10.00;10.00;32.60;36.90;;;;;;4974202;28;11545;-79
2022/06/05 08:46:40;;;;;;;;;14.75;14.75;32.50;38.40;;;;;;4996255;28;11546;-78
2022/06/05 08:49:05;;;;;;;;;16.00;16.00;32.60;39.50;;;;;;4996227;28;11570;-78
2022/06/05 08:51:42;;;;;;;;;13.50;13.50;32.70;39.50;;;;;;4996203;28;11568;-79
2022/06/05 08:54:30;;;;;;;;;14.00;14.00;32.80;38.10;;;;;;4995143;28;8791;-80
2022/06/05 08:57:04;;;;;;;;;15.00;15.00;32.90;38.50;;;;;;4996036;28;11556;-79
2022/06/05 08:59:38;;;;;;;;;14.75;14.75;33.00;38.20;;;;;;4996180;28;11575;-80
2022/06/05 09:02:24;;;;;;;;;13.00;13.00;33.10;38.10;;;;;;4996043;28;11611;-79
2022/06/05 09:08:21;;;;;;;;;13.00;13.00;33.20;36.20;;;;;;4997450;28;11609;-85
2022/06/05 09:10:53;;;;;;;;;12.00;12.00;33.30;35.20;;;;;;4995866;28;11534;-83
2022/06/05 09:13:43;;;;;;;;;9.25;9.25;33.30;34.80;;;;;;4996255;28;11594;-82
2022/06/05 09:16:24;;;;;;;;;12.00;12.00;33.30;34.40;;;;;;4996534;28;11513;-83
2022/06/05 09:18:50;;;;;;;;;12.25;12.25;33.40;35.80;;;;;;4996338;28;11523;-83
2022/06/05 09:21:31;;;;;;;;;10.00;10.00;33.50;34.40;;;;;;4996114;28;11677;-82
2022/06/05 09:24:18;;;;;;;;;12.00;12.00;33.60;33.20;;;;;;4996670;28;9469;-83
2022/06/05 09:26:58;;;;;;;;;6.25;6.25;33.70;34.60;;;;;;4996733;28;11607;-83
2022/06/05 09:29:27;;;;;;;;;10.00;10.00;33.90;32.40;;;;;;4996610;28;11657;-83
2022/06/05 09:32:11;;;;;;;;;8.50;8.50;34.00;33.20;;;;;;4996927;28;11602;-83
2022/06/05 09:34:47;;;;;;;;;9.25;9.25;34.20;33.00;;;;;;4997670;28;11497;-83
2022/06/05 09:37:27;;;;;;;;;10.00;10.00;34.20;32.10;;;;;;4998633;28;11505;-78
2022/06/05 09:40:15;;;;;;;;;10.00;10.00;34.10;32.00;;;;;;4996102;28;11497;-82
2022/06/05 09:42:51;;;;;;;;;12.50;12.50;34.30;33.30;;;;;;4996181;28;12166;-83
2022/06/05 09:45:29;;;;;;;;;9.00;9.00;34.40;33.10;;;;;;4996135;28;11492;-83
2022/06/05 09:48:05;;;;;;;;;11.00;11.00;34.60;33.00;;;;;;4997091;28;11474;-79
2022/06/05 09:50:31;;;;;;;;;9.00;9.00;34.60;33.30;;;;;;4995929;28;11568;-77
2022/06/05 09:52:57;;;;;;;;;9.00;9.00;34.70;32.60;;;;;;4995947;28;11497;-77
2022/06/05 09:55:32;;;;;;;;;11.25;11.25;34.90;32.90;;;;;;4995501;28;8763;-76
2022/06/05 09:58:25;;;;;;;;;10.50;10.50;35.00;33.10;;;;;;4995826;28;12245;-78
2022/06/05 10:00:56;;;;;;;;;10.75;10.75;35.20;33.60;;;;;;4995813;28;11551;-76
2022/06/05 10:03:42;;;;;;;;;11.25;11.25;35.30;33.50;;;;;;4995111;28;11615;-75
2022/06/05 10:06:25;;;;;;;;;12.25;12.25;35.40;32.40;;;;;;4994871;28;11524;-76
2022/06/05 10:09:18;;;;;;;;;12.50;12.50;35.40;32.50;;;;;;4995605;28;12301;-74
2022/06/05 10:11:55;;;;;;;;;12.00;12.00;35.30;33.00;;;;;;4995318;28;11608;-76
2022/06/05 10:14:32;;;;;;;;;13.50;13.50;35.40;33.30;;;;;;4995890;28;12213;-77
2022/06/05 10:17:35;;;;;;;;;11.25;11.25;35.70;33.70;;;;;;4995133;28;11615;-75
2022/06/05 10:20:13;;;;;;;;;12.75;12.75;35.60;32.10;;;;;;4995056;28;11511;-74
2022/06/05 10:22:52;;;;;;;;;11.25;11.25;35.70;32.40;;;;;;4995023;28;11558;-74
2022/06/05 10:25:36;;;;;;;;;7.00;7.00;36.00;31.40;;;;;;4994316;28;11572;-75
2022/06/05 10:28:14;;;;;;;;;11.75;11.75;36.00;31.40;;;;;;4995127;28;12191;-75
2022/06/05 10:30:53;;;;;;;;;9.75;9.75;36.30;30.50;;;;;;4995171;28;11581;-74
2022/06/05 10:33:39;;;;;;;;;8.50;8.50;36.10;29.70;;;;;;4994605;28;12124;-75
2022/06/05 10:36:16;;;;;;;;;11.75;11.75;36.30;30.70;;;;;;4995278;28;11485;-74
2022/06/05 10:39:08;;;;;;;;;11.25;11.25;36.60;29.80;;;;;;4995540;28;11614;-79
2022/06/05 10:41:44;;;;;;;;;10.75;10.75;36.70;29.70;;;;;;4996117;28;11512;-82
2022/06/05 10:44:19;;;;;;;;;10.50;10.50;36.80;29.70;;;;;;4995420;28;11501;-81
2022/06/05 10:47:03;;;;;;;;;12.25;12.25;36.80;29.80;;;;;;4995424;28;11528;-83
2022/06/05 10:52:54;;;;;;;;;12.00;12.00;37.10;29.00;;;;;;4995532;28;11485;-81
2022/06/05 10:55:46;;;;;;;;;10.00;10.00;37.20;28.80;;;;;;4995551;28;11504;-82
2022/06/05 10:58:22;;;;;;;;;11.00;11.00;37.30;29.60;;;;;;4995267;28;11492;-84
2022/06/05 11:01:27;;;;;;;;;9.00;9.00;37.50;29.30;;;;;;4995413;28;11538;-82
2022/06/05 11:04:03;;;;;;;;;10.00;10.00;37.90;29.00;;;;;;4995198;28;11478;-82
2022/06/05 11:07:06;;;;;;;;;9.75;9.75;37.50;28.00;;;;;;4995018;28;11589;-82
2022/06/05 11:09:49;;;;;;;;;11.25;11.25;37.90;28.10;;;;;;4990024;28;11540;-81
2022/06/05 11:15:24;;;;;;;;;8.75;8.75;38.20;27.50;;;;;;4995328;28;11445;-80
2022/06/05 11:18:05;;;;;;;;;11.00;11.00;38.30;27.60;;;;;;4994806;28;11576;-81
2022/06/05 11:20:33;;;;;;;;;12.25;12.25;38.10;27.00;;;;;;4994625;28;11533;-82
2022/06/05 11:23:14;;;;;;;;;11.25;11.25;38.10;27.00;;;;;;4995023;28;11594;-81
2022/06/05 11:26:04;;;;;;;;;10.75;10.75;38.50;27.30;;;;;;4994770;28;11510;-82
2022/06/05 11:28:57;;;;;;;;;11.50;11.50;38.60;26.90;;;;;;4974976;28;11558;-82
2022/06/05 11:31:42;;;;;;;;;9.00;9.00;38.70;26.80;;;;;;4995542;28;11536;-83
2022/06/05 11:34:17;;;;;;;;;11.75;11.75;39.00;26.50;;;;;;4996126;28;12174;-80
2022/06/05 11:36:53;;;;;;;;;11.00;11.00;39.10;26.50;;;;;;4996845;28;11713;-78
2022/06/05 11:39:37;;;;;;;;;12.00;12.00;39.30;26.00;;;;;;4995856;28;11550;-84
2022/06/05 11:42:34;;;;;;;;;11.75;11.75;39.40;26.20;;;;;;4995142;28;11550;-82
2022/06/05 11:45:00;;;;;;;;;11.00;11.00;39.30;26.10;;;;;;4994814;28;11506;-82
2022/06/05 11:47:38;;;;;;;;;10.75;10.75;39.60;25.90;;;;;;4994322;28;11513;-82
2022/06/05 11:50:39;;;;;;;;;12.75;12.75;39.60;25.60;;;;;;4994499;28;8791;-81
2022/06/05 11:53:47;;;;;;;;;10.50;10.50;39.80;25.90;;;;;;4994758;28;11500;-81
2022/06/05 11:56:29;;;;;;;;;11.00;11.00;39.90;25.90;;;;;;5009498;28;11669;-81
2022/06/05 11:59:18;;;;;;;;;12.00;12.00;39.90;26.20;;;;;;4998196;28;11658;-81
2022/06/05 12:01:50;;;;;;;;;13.00;13.00;40.10;25.30;;;;;;4998318;28;11527;-80
2022/06/05 12:04:32;;;;;;;;;11.25;11.25;40.50;24.70;;;;;;4997801;28;11538;-78
2022/06/05 12:07:00;;;;;;;;;12.00;12.00;40.80;24.80;;;;;;4998202;28;11555;-83
2022/06/05 12:09:29;;;;;;;;;12.25;12.25;40.60;24.90;;;;;;4997873;28;11579;-80
2022/06/05 12:12:24;;;;;;;;;14.75;14.75;40.60;24.60;;;;;;4997983;28;11530;-84
2022/06/05 12:15:06;;;;;;;;;14.50;14.50;41.10;25.10;;;;;;4998214;28;12222;-85
2022/06/05 12:17:43;;;;;;;;;13.00;13.00;40.70;24.40;;;;;;4997855;28;11606;-82
2022/06/05 12:20:44;;;;;;;;;12.00;12.00;40.60;24.70;;;;;;4998421;28;11545;-83
2022/06/05 12:23:33;;;;;;;;;14.00;14.00;40.50;24.60;;;;;;4998171;28;11547;-83
2022/06/05 12:26:26;;;;;;;;;16.00;16.00;40.10;25.20;;;;;;4998098;28;11502;-81
2022/06/05 12:29:14;;;;;;;;;15.00;15.00;40.20;24.70;;;;;;4979919;28;11712;-79
2022/06/05 12:32:03;;;;;;;;;15.25;15.25;40.00;25.10;;;;;;4997880;28;11600;-80
2022/06/05 12:34:43;;;;;;;;;11.00;11.00;40.30;24.90;;;;;;4996877;28;11540;-84
2022/06/05 12:37:38;;;;;;;;;12.75;12.75;40.30;24.60;;;;;;4997574;28;11541;-79
2022/06/05 12:40:15;;;;;;;;;15.50;15.50;40.60;24.50;;;;;;5012139;28;11558;-82
2022/06/05 12:43:01;;;;;;;;;13.50;13.50;40.60;24.30;;;;;;4997079;28;11526;-82
2022/06/05 12:45:31;;;;;;;;;14.00;14.00;40.60;24.50;;;;;;4997642;28;11536;-80
2022/06/05 12:48:02;;;;;;;;;14.00;14.00;40.70;24.20;;;;;;4997574;28;11553;-81
2022/06/05 12:50:48;;;;;;;;;14.00;14.00;40.60;24.10;;;;;;4997222;28;11592;-77
2022/06/05 12:53:37;;;;;;;;;17.00;17.00;40.30;25.00;;;;;;4996603;28;11552;-81
2022/06/05 12:56:24;;;;;;;;;16.25;16.25;40.70;24.30;;;;;;4990752;28;11623;-80
2022/06/05 12:59:00;;;;;;;;;15.50;15.50;40.80;24.10;;;;;;4997190;28;11549;-84
2022/06/05 13:01:45;;;;;;;;;15.50;15.50;40.90;24.20;;;;;;4997059;28;11573;-80
2022/06/05 13:04:29;;;;;;;;;15.25;15.25;41.10;24.00;;;;;;4997484;28;11601;-80
2022/06/05 13:07:10;;;;;;;;;11.25;11.25;41.10;24.10;;;;;;5000929;28;11584;-84
2022/06/05 13:09:53;;;;;;;;;14.00;14.00;41.10;23.70;;;;;;4996427;28;11580;-82
2022/06/05 13:12:34;;;;;;;;;14.00;14.00;40.60;23.80;;;;;;4996988;28;11610;-83
2022/06/05 13:15:22;;;;;;;;;15.00;15.00;40.70;23.90;;;;;;4996920;28;11557;-83
2022/06/05 13:18:04;;;;;;;;;15.00;15.00;40.90;23.70;;;;;;4996199;28;11549;-82
2022/06/05 13:20:51;;;;;;;;;14.75;14.75;40.60;23.90;;;;;;4996377;28;11567;-81
2022/06/05 13:23:37;;;;;;;;;13.50;13.50;40.10;24.30;;;;;;4996490;28;11529;-81
2022/06/05 13:26:32;;;;;;;;;13.50;13.50;40.30;24.00;;;;;;4996648;28;11524;-83
2022/06/05 13:29:15;;;;;;;;;14.75;14.75;40.40;23.70;;;;;;4992126;28;11582;-81
2022/06/05 13:32:29;;;;;;;;;16.25;16.25;40.40;23.50;;;;;;4995665;28;11540;-82